Time;durP1;ratioP1;P1;durP2;ratioP2;P2;SDS_P1;SDS_P2;PMS_P1;PMS_P2;Temp;Humidity;BMP_temperature;BMP_pressure;BME280_temperature;BME280_humidity;BME280_pressure;Samples;Min_cycle;Max_cycle;Signal;HPM_P1;HPM_P2
2022/10/30 00:02:41;;;;;;;0.20;0.10;;;18.00;99.90;;;;;;25539338;23;20380;-71
2022/10/30 00:12:45;;;;;;;0.20;0.00;;;17.80;99.90;;;;;;25534630;23;20370;-71
2022/10/30 00:23:07;;;;;;;0.20;0.00;;;17.80;99.90;;;;;;25536205;23;20385;-71
2022/10/30 00:33:11;;;;;;;0.20;0.00;;;17.80;99.90;;;;;;25534388;23;20389;-71
2022/10/30 00:43:37;;;;;;;0.20;0.00;;;17.70;99.90;;;;;;25534780;23;20400;-71
2022/10/30 00:53:42;;;;;;;0.20;0.00;;;17.60;99.90;;;;;;25535811;23;20384;-71
2022/10/30 01:03:47;;;;;;;0.20;0.00;;;17.30;99.90;;;;;;25510447;23;20368;-71
2022/10/30 01:13:53;;;;;;;0.20;0.00;;;17.30;99.90;;;;;;25534075;23;20373;-72
2022/10/30 01:24:14;;;;;;;0.20;0.00;;;17.20;99.90;;;;;;25506484;23;20365;-72
2022/10/30 01:34:20;;;;;;;0.20;0.00;;;17.00;99.90;;;;;;25533587;23;20377;-70
2022/10/30 01:44:30;;;;;;;0.20;0.00;;;17.00;99.90;;;;;;25534908;23;20412;-70
2022/10/30 01:54:44;;;;;;;0.20;0.00;;;16.70;99.90;;;;;;25507226;23;20377;-72
2022/10/30 02:05:09;;;;;;;0.20;0.10;;;16.60;99.90;;;;;;25533542;23;20397;-73
2022/10/30 02:15:13;;;;;;;0.20;0.00;;;16.40;99.90;;;;;;25533236;23;20495;-72
2022/10/30 02:25:35;;;;;;;0.20;0.05;;;16.50;99.90;;;;;;25531344;23;20404;-71
2022/10/30 02:35:42;;;;;;;0.20;0.00;;;16.50;99.90;;;;;;25536158;23;20385;-71
2022/10/30 08:18:30;;;;;;;0.20;0.00;;;19.30;99.90;;;;;;25414438;23;20418;-73
2022/10/30 08:28:38;;;;;;;0.20;0.00;;;19.50;99.90;;;;;;25412962;23;20395;-73
2022/10/30 08:38:48;;;;;;;0.20;0.00;;;19.60;99.90;;;;;;25387292;23;20398;-72
2022/10/30 08:48:53;;;;;;;0.20;0.10;;;19.60;99.90;;;;;;25412967;23;20375;-73
2022/10/30 08:58:59;;;;;;;0.20;0.00;;;19.70;99.90;;;;;;25411303;23;20379;-73
2022/10/30 09:09:02;;;;;;;0.20;0.10;;;20.10;99.90;;;;;;25429636;23;20375;-72
2022/10/30 09:19:08;;;;;;;0.20;0.00;;;20.50;99.90;;;;;;25654404;23;20434;-72
2022/10/30 09:29:17;;;;;;;0.20;0.00;;;20.80;99.90;;;;;;25657273;23;20360;-71
2022/10/30 09:39:24;;;;;;;0.20;0.00;;;22.00;99.90;;;;;;25657377;23;20375;-72
2022/10/30 09:49:44;;;;;;;0.20;0.00;;;21.80;99.90;;;;;;25623300;23;20400;-72
2022/10/30 10:00:02;;;;;;;0.20;0.00;;;21.90;99.90;;;;;;25652831;23;20403;-70
2022/10/30 10:10:13;;;;;;;0.20;0.00;;;21.60;99.90;;;;;;25652126;23;20368;-71
2022/10/30 10:20:30;;;;;;;0.20;0.00;;;22.20;99.90;;;;;;25625814;23;20501;-72
2022/10/30 10:30:46;;;;;;;0.20;0.00;;;22.70;99.90;;;;;;25651862;23;20360;-71
2022/10/30 10:41:00;;;;;;;0.20;0.00;;;22.50;99.90;;;;;;25625359;23;20391;-74
2022/10/30 10:51:09;;;;;;;0.20;0.10;;;22.50;99.90;;;;;;25627507;23;20390;-72
2022/10/30 11:01:38;;;;;;;0.20;0.10;;;22.40;99.90;;;;;;25658792;23;20394;-71
2022/10/30 11:11:42;;;;;;;0.20;0.00;;;22.80;99.90;;;;;;25658658;23;20372;-70
2022/10/30 11:21:53;;;;;;;0.20;0.00;;;23.00;99.90;;;;;;25608475;23;20380;-70
2022/10/30 11:32:21;;;;;;;0.20;0.00;;;24.00;99.90;;;;;;25630051;23;20368;-70
2022/10/30 11:42:46;;;;;;;0.20;0.10;;;25.10;99.90;;;;;;25660129;23;20383;-71
2022/10/30 11:52:52;;;;;;;0.20;0.00;;;24.00;99.90;;;;;;25658908;23;20372;-70
2022/10/30 12:02:59;;;;;;;0.20;0.00;;;24.90;99.90;;;;;;25631801;23;20386;-70
2022/10/30 12:13:22;;;;;;;0.20;0.00;;;25.30;99.90;;;;;;25632917;23;20360;-71
2022/10/30 12:23:52;;;;;;;0.20;0.00;;;25.50;99.90;;;;;;25654560;23;20390;-71
2022/10/30 12:34:07;;;;;;;0.20;0.10;;;24.30;99.90;;;;;;25656505;23;20403;-71
2022/10/30 12:44:18;;;;;;;0.30;0.30;;;23.60;99.90;;;;;;25629200;23;20351;-71
2022/10/30 12:54:31;;;;;;;0.20;0.00;;;23.20;99.90;;;;;;25654510;23;20384;-71
2022/10/30 13:04:39;;;;;;;0.20;0.00;;;23.60;99.90;;;;;;25652460;23;20356;-71
2022/10/30 13:14:47;;;;;;;0.20;0.00;;;24.10;99.90;;;;;;25627552;23;20439;-69
2022/10/30 13:25:00;;;;;;;0.20;0.00;;;24.50;99.90;;;;;;25653336;23;20367;-69
2022/10/30 13:35:20;;;;;;;0.20;0.00;;;24.50;99.90;;;;;;25627827;23;20402;-67
2022/10/30 13:46:02;;;;;;;0.20;0.00;;;25.10;99.90;;;;;;25653121;23;20367;-68
2022/10/30 13:56:07;;;;;;;0.20;0.03;;;26.40;99.90;;;;;;25629384;23;20384;-68
2022/10/30 14:06:21;;;;;;;0.20;0.00;;;26.10;99.90;;;;;;25649127;23;20458;-69
2022/10/30 14:16:40;;;;;;;0.20;0.00;;;26.90;99.90;;;;;;25621042;23;20390;-67
2022/10/30 14:26:55;;;;;;;0.20;0.00;;;27.10;99.90;;;;;;25648822;23;20376;-69
2022/10/30 14:36:59;;;;;;;0.20;0.00;;;26.80;99.90;;;;;;25658282;23;20376;-69
2022/10/30 14:47:35;;;;;;;0.20;0.00;;;26.50;99.90;;;;;;25658371;23;20397;-68
2022/10/30 14:58:22;;;;;;;0.20;0.00;;;26.00;99.90;;;;;;25629716;23;20380;-69
2022/10/30 15:08:51;;;;;;;0.20;0.00;;;24.80;99.90;;;;;;25631256;23;20363;-68
2022/10/30 15:19:01;;;;;;;0.20;0.00;;;24.30;99.90;;;;;;25657764;23;20386;-69
2022/10/30 15:29:07;;;;;;;0.20;0.00;;;23.60;99.90;;;;;;25655701;23;20368;-69
2022/10/30 15:39:14;;;;;;;0.20;0.00;;;23.30;99.90;;;;;;25629983;23;20375;-68
2022/10/30 15:49:38;;;;;;;0.20;0.00;;;23.00;99.90;;;;;;25656454;23;20379;-68
2022/10/30 15:59:51;;;;;;;0.20;0.00;;;22.80;99.90;;;;;;25656518;23;20375;-68
2022/10/30 16:09:57;;;;;;;0.20;0.00;;;22.50;99.90;;;;;;25656700;23;20434;-69
2022/10/30 16:20:20;;;;;;;0.20;0.00;;;22.20;99.90;;;;;;25604825;23;20815;-70
2022/10/30 16:30:28;;;;;;;0.20;0.00;;;22.00;99.90;;;;;;25654576;23;20360;-69
2022/10/30 16:40:33;;;;;;;0.20;0.00;;;21.60;99.90;;;;;;25653504;23;20396;-71
2022/10/30 16:50:38;;;;;;;0.20;0.00;;;21.10;99.90;;;;;;25652121;23;20379;-69
2022/10/30 17:00:50;;;;;;;0.20;0.00;;;20.80;99.90;;;;;;25653360;23;20379;-70
2022/10/30 17:10:58;;;;;;;0.20;0.00;;;20.40;99.90;;;;;;25653921;23;20383;-69
2022/10/30 17:21:08;;;;;;;0.20;0.00;;;20.10;99.90;;;;;;25651600;23;20360;-70
2022/10/30 17:31:42;;;;;;;0.20;0.00;;;19.50;99.90;;;;;;25650509;23;20363;-71
2022/10/30 17:41:48;;;;;;;0.20;0.00;;;19.30;99.90;;;;;;25626838;23;20413;-70
2022/10/30 17:51:52;;;;;;;0.20;0.00;;;19.20;99.90;;;;;;25649603;23;20367;-69
2022/10/30 18:01:57;;;;;;;0.20;0.00;;;19.10;99.90;;;;;;25624432;23;20379;-71
2022/10/30 18:12:01;;;;;;;0.20;0.00;;;18.90;99.90;;;;;;25645944;23;20375;-70
2022/10/30 18:22:06;;;;;;;0.20;0.00;;;18.70;99.90;;;;;;25648998;23;20383;-71
2022/10/30 18:32:11;;;;;;;0.20;0.00;;;18.70;99.90;;;;;;25620653;23;20371;-73
2022/10/30 18:42:16;;;;;;;0.20;0.10;;;18.60;99.90;;;;;;25624515;23;20399;-71
2022/10/30 18:52:20;;;;;;;0.20;0.00;;;18.60;99.90;;;;;;25621840;23;20395;-69
2022/10/30 19:02:25;;;;;;;0.20;0.00;;;18.40;99.90;;;;;;25620695;23;20456;-72
2022/10/30 19:12:29;;;;;;;0.20;0.00;;;18.30;99.90;;;;;;25623286;23;20374;-71
2022/10/30 19:22:52;;;;;;;0.20;0.00;;;18.30;99.90;;;;;;25656417;23;20380;-70
2022/10/30 19:33:13;;;;;;;0.20;0.00;;;18.20;99.90;;;;;;25654522;23;20418;-70
2022/10/30 19:43:18;;;;;;;0.20;0.10;;;18.30;99.90;;;;;;25629538;23;20375;-70
2022/10/30 19:53:22;;;;;;;0.20;0.00;;;18.20;99.90;;;;;;25659344;23;20383;-70
2022/10/30 20:03:27;;;;;;;0.20;0.00;;;18.20;99.90;;;;;;25604110;23;20544;-69
2022/10/30 20:13:31;;;;;;;0.20;0.03;;;18.30;99.90;;;;;;25652961;23;20387;-70
2022/10/30 20:23:37;;;;;;;0.20;0.10;;;18.30;99.90;;;;;;25651710;23;20388;-70
2022/10/30 20:33:41;;;;;;;0.20;0.00;;;18.00;99.90;;;;;;25627332;23;20366;-70
2022/10/30 20:43:48;;;;;;;0.20;0.00;;;18.00;99.90;;;;;;25649610;23;20376;-70
2022/10/30 20:53:54;;;;;;;0.20;0.00;;;18.00;99.90;;;;;;25625680;23;20385;-70
2022/10/30 21:04:17;;;;;;;0.20;0.10;;;18.00;99.90;;;;;;25647909;23;20382;-70
2022/10/30 21:14:20;;;;;;;0.20;0.10;;;17.90;99.90;;;;;;25649778;23;20383;-70
2022/10/30 21:24:26;;;;;;;0.20;0.00;;;17.90;99.90;;;;;;25649657;23;20407;-70
2022/10/30 21:34:47;;;;;;;0.20;0.10;;;17.90;99.90;;;;;;25650382;23;20481;-70
2022/10/30 21:45:12;;;;;;;0.20;0.00;;;18.10;99.90;;;;;;25648963;23;20375;-69
2022/10/30 21:55:16;;;;;;;0.20;0.10;;;18.00;99.90;;;;;;25623298;23;20359;-70
2022/10/30 22:05:21;;;;;;;0.20;0.00;;;17.90;99.90;;;;;;25625310;23;20401;-71
2022/10/30 22:15:42;;;;;;;0.20;0.10;;;17.90;99.90;;;;;;25651584;23;20372;-70
2022/10/30 22:25:55;;;;;;;0.20;0.00;;;17.90;99.90;;;;;;25623498;23;20371;-70
2022/10/30 22:36:02;;;;;;;0.20;0.07;;;17.90;99.90;;;;;;25626836;23;20382;-69
2022/10/30 22:46:13;;;;;;;0.20;0.00;;;18.00;99.90;;;;;;25652648;23;20364;-69
2022/10/30 22:56:18;;;;;;;0.20;0.00;;;18.10;99.90;;;;;;25659107;23;20398;-69
2022/10/30 23:06:24;;;;;;;0.20;0.00;;;18.10;99.90;;;;;;25661250;23;20363;-70
2022/10/30 23:16:28;;;;;;;0.20;0.10;;;18.10;99.90;;;;;;25659308;23;20375;-70
2022/10/30 23:26:35;;;;;;;0.20;0.00;;;18.10;99.90;;;;;;25660456;23;21362;-69
2022/10/30 23:36:41;;;;;;;0.20;0.03;;;18.10;99.90;;;;;;25659255;23;20368;-70
2022/10/30 23:46:47;;;;;;;0.20;0.00;;;18.10;99.90;;;;;;25659327;23;20379;-70
2022/10/30 23:56:51;;;;;;;0.20;0.10;;;18.20;99.90;;;;;;25631782;23;20395;-70
